createdAt,value
2023-03-10T00:00:16.233Z,98245.63
2023-03-10T00:03:01.159Z,98232.84
2023-03-10T00:05:46.648Z,98235.50
2023-03-10T00:08:32.066Z,98225.31
2023-03-10T00:11:32.891Z,98216.78
2023-03-10T00:14:18.311Z,98216.84
2023-03-10T00:17:03.686Z,98202.34
2023-03-10T00:19:48.873Z,98196.38
2023-03-10T00:22:34.938Z,98190.38
2023-03-10T00:25:20.142Z,98181.91
2023-03-10T00:28:05.541Z,98176.75
2023-03-10T00:31:01.717Z,98170.78
2023-03-10T00:33:47.752Z,98168.25
2023-03-10T00:36:33.495Z,98167.41
2023-03-10T00:39:18.539Z,98147.84
2023-03-10T00:42:03.582Z,98149.56
2023-03-10T00:44:48.786Z,98145.28
2023-03-10T00:47:33.980Z,98132.53
2023-03-10T00:50:19.352Z,98131.69
2023-03-10T00:53:04.275Z,98119.75
2023-03-10T00:56:03.941Z,98106.13
2023-03-10T00:58:54.420Z,98099.28
2023-03-10T01:01:41.845Z,98095.84
2023-03-10T01:04:26.855Z,98088.19
2023-03-10T01:07:12.440Z,98078.78
2023-03-10T01:09:57.786Z,98062.53
2023-03-10T01:12:43.206Z,98059.06
2023-03-10T01:15:28.070Z,98047.06
2023-03-10T01:18:13.873Z,98038.44
2023-03-10T01:20:58.834Z,98034.97
2023-03-10T01:23:44.188Z,98029.75
2023-03-10T01:26:30.001Z,98024.50
2023-03-10T01:29:15.002Z,98010.75
2023-03-10T01:31:59.867Z,98001.31
2023-03-10T01:34:44.832Z,97999.50
2023-03-10T01:37:29.653Z,97987.47
2023-03-10T01:40:16.028Z,97978.94
2023-03-10T01:43:19.596Z,97976.31
2023-03-10T01:46:23.861Z,97971.06
2023-03-10T01:49:14.027Z,97965.78
2023-03-10T01:52:21.976Z,97969.16
2023-03-10T01:55:30.534Z,97955.38
2023-03-10T01:58:18.323Z,97960.50
2023-03-10T02:01:03.914Z,97955.09
2023-03-10T02:04:03.338Z,97961.78
2023-03-10T02:06:48.630Z,97957.53
2023-03-10T02:09:37.894Z,97957.56
2023-03-10T02:12:23.547Z,97958.41
2023-03-10T02:15:10.407Z,97961.66
2023-03-10T02:17:56.388Z,97946.91
2023-03-10T02:20:44.532Z,97941.38
2023-03-10T02:24:05.489Z,97943.53
2023-03-10T02:26:53.515Z,97923.44
2023-03-10T02:29:58.071Z,97911.97
2023-03-10T02:32:47.555Z,97912.50
2023-03-10T02:35:32.747Z,97906.94
2023-03-10T02:38:18.315Z,97896.38
2023-03-10T02:41:16.459Z,97898.09
2023-03-10T02:44:34.156Z,97891.75
2023-03-10T02:47:31.428Z,97900.97
2023-03-10T02:50:17.947Z,97899.97
2023-03-10T02:53:11.854Z,97889.59
2023-03-10T02:56:30.218Z,97901.19
2023-03-10T02:59:25.955Z,97919.22
2023-03-10T03:02:16.576Z,97911.81
2023-03-10T03:05:01.870Z,97893.00
2023-03-10T03:07:47.087Z,97913.72
2023-03-10T03:10:33.495Z,97913.84
2023-03-10T03:13:18.575Z,97907.19
2023-03-10T03:16:06.538Z,97925.28
2023-03-10T03:18:51.320Z,97918.50
2023-03-10T03:21:36.661Z,97937.44
2023-03-10T03:24:25.142Z,97940.19
2023-03-10T03:27:10.138Z,97943.78
2023-03-10T03:29:55.028Z,97956.72
2023-03-10T03:32:40.111Z,97956.75
2023-03-10T03:35:34.748Z,97972.25
2023-03-10T03:38:19.933Z,97970.81
2023-03-10T03:41:08.529Z,97982.78
2023-03-10T03:43:54.077Z,97983.72
2023-03-10T03:46:39.004Z,97980.47
2023-03-10T03:49:27.364Z,97980.53
2023-03-10T03:52:12.588Z,97979.91
2023-03-10T03:54:57.711Z,97989.41
2023-03-10T03:57:43.527Z,97989.47
2023-03-10T04:00:28.937Z,97988.72
2023-03-10T04:03:14.259Z,97983.59
2023-03-10T04:05:59.535Z,97986.22
2023-03-10T04:08:45.317Z,97988.88
2023-03-10T04:11:33.428Z,97981.97
2023-03-10T04:14:18.962Z,97993.13
2023-03-10T04:17:04.963Z,97989.72
2023-03-10T04:20:04.541Z,97990.56
2023-03-10T04:22:52.428Z,97984.59
2023-03-10T04:25:40.748Z,97987.91
2023-03-10T04:28:25.866Z,97994.00
2023-03-10T04:31:15.862Z,98002.59
2023-03-10T04:34:00.951Z,98002.53
2023-03-10T04:36:46.366Z,97981.22
2023-03-10T04:39:31.785Z,97982.91
2023-03-10T04:42:16.779Z,97984.66
2023-03-10T04:45:01.940Z,97982.09
2023-03-10T04:47:46.966Z,97986.34
2023-03-10T04:50:32.336Z,97978.72
2023-03-10T04:53:17.689Z,97967.66
2023-03-10T04:56:06.018Z,97981.44
2023-03-10T04:58:51.302Z,97977.22
2023-03-10T05:01:36.313Z,97977.25
2023-03-10T05:04:21.706Z,97971.44
2023-03-10T05:07:06.897Z,97982.56
2023-03-10T05:09:51.948Z,97976.56
2023-03-10T05:12:40.327Z,97981.63
2023-03-10T05:15:25.594Z,97978.16
2023-03-10T05:18:11.507Z,97980.69
2023-03-10T05:20:57.934Z,97984.09
2023-03-10T05:23:42.880Z,97990.06
2023-03-10T05:26:28.228Z,97986.56
2023-03-10T05:29:13.541Z,97984.75
2023-03-10T05:31:58.523Z,97990.69
2023-03-10T05:34:43.386Z,97989.22
2023-03-10T05:37:28.373Z,97998.69
2023-03-10T05:40:15.891Z,97996.09
2023-03-10T05:43:01.578Z,97990.91
2023-03-10T05:45:54.880Z,97997.00
2023-03-10T05:48:40.104Z,97992.75
2023-03-10T05:51:25.027Z,97994.50
2023-03-10T05:54:10.208Z,97996.38
2023-03-10T05:56:55.398Z,97988.88
2023-03-10T05:59:42.645Z,97979.69
2023-03-10T06:02:27.642Z,97986.47
2023-03-10T06:05:12.905Z,97981.22
2023-03-10T06:07:58.427Z,97984.63
2023-03-10T06:10:43.458Z,97984.53
2023-03-10T06:13:28.976Z,97994.88
2023-03-10T06:16:14.457Z,97993.84
2023-03-10T06:18:59.705Z,97982.38
2023-03-10T06:21:44.992Z,97988.19
2023-03-10T06:24:30.215Z,97975.50
2023-03-10T06:27:15.599Z,97995.09
2023-03-10T06:30:01.285Z,97984.88
2023-03-10T06:32:46.556Z,97996.03
2023-03-10T06:35:32.348Z,97999.31
2023-03-10T06:38:17.569Z,98003.63
2023-03-10T06:41:02.809Z,97995.06
2023-03-10T06:43:48.262Z,97990.03
2023-03-10T06:46:33.282Z,97985.78
2023-03-10T06:49:18.832Z,97983.22
2023-03-10T06:52:04.490Z,97988.25
2023-03-10T06:54:49.678Z,97990.78
2023-03-10T06:57:35.435Z,97997.56
2023-03-10T07:00:20.450Z,98005.22
2023-03-10T07:03:06.311Z,98007.94
2023-03-10T07:05:52.328Z,98015.63
2023-03-10T07:08:37.472Z,98016.56
2023-03-10T07:11:24.648Z,98019.00
2023-03-10T07:14:10.077Z,98017.19
2023-03-10T07:16:55.172Z,98010.50
2023-03-10T07:19:40.319Z,98021.59
2023-03-10T07:22:39.737Z,98018.03
2023-03-10T07:25:24.714Z,98024.94
2023-03-10T07:28:09.694Z,98035.19
2023-03-10T07:30:55.130Z,98033.44
2023-03-10T07:33:40.594Z,98032.66
2023-03-10T07:36:25.998Z,98043.00
2023-03-10T07:39:11.496Z,98046.25
2023-03-10T07:41:56.679Z,98039.34
2023-03-10T07:44:41.543Z,98042.13
2023-03-10T07:47:27.202Z,98041.22
2023-03-10T07:50:12.368Z,98053.06
2023-03-10T07:52:57.447Z,98049.69
2023-03-10T07:55:42.275Z,98054.00
2023-03-10T07:58:27.412Z,98051.41
2023-03-10T08:01:18.998Z,98053.09
2023-03-10T08:04:04.509Z,98057.16
2023-03-10T08:06:49.502Z,98053.81
2023-03-10T08:09:35.499Z,98047.75
2023-03-10T08:12:23.713Z,98060.78
2023-03-10T08:15:09.089Z,98059.91
2023-03-10T08:17:54.044Z,98058.25
2023-03-10T08:20:39.264Z,98059.09
2023-03-10T08:23:26.720Z,98064.16
2023-03-10T08:26:17.526Z,98054.66
2023-03-10T08:29:02.955Z,98064.81
2023-03-10T08:31:48.891Z,98077.75
2023-03-10T08:34:35.655Z,98075.25
2023-03-10T08:37:20.808Z,98066.75
2023-03-10T08:40:07.047Z,98069.25
2023-03-10T08:42:52.544Z,98065.81
2023-03-10T08:45:37.735Z,98064.13
2023-03-10T08:48:22.599Z,98070.34
2023-03-10T08:51:07.930Z,98068.56
2023-03-10T08:53:53.858Z,98069.50
2023-03-10T08:56:39.322Z,98064.44
2023-03-10T08:59:24.785Z,98069.44
2023-03-10T09:02:11.923Z,98062.63
2023-03-10T09:04:57.287Z,98065.25
2023-03-10T09:07:42.422Z,98071.91
2023-03-10T09:10:28.010Z,98067.59
2023-03-10T09:13:14.507Z,98054.06
2023-03-10T09:16:00.275Z,98056.56
2023-03-10T09:18:46.057Z,98061.75
2023-03-10T09:21:33.743Z,98064.19
2023-03-10T09:24:19.226Z,98060.88
2023-03-10T09:27:04.400Z,98062.59
2023-03-10T09:29:49.618Z,98064.31
2023-03-10T09:32:35.281Z,98070.22
2023-03-10T09:35:20.449Z,98076.16
2023-03-10T09:38:05.794Z,98069.25
2023-03-10T09:41:02.856Z,98072.66
2023-03-10T09:43:57.433Z,98069.34
2023-03-10T09:47:16.807Z,98065.00
2023-03-10T09:50:10.913Z,98075.22
2023-03-10T09:53:15.427Z,98072.50
2023-03-10T09:56:00.864Z,98076.03
2023-03-10T09:58:54.056Z,98081.91
2023-03-10T10:01:45.198Z,98075.81
2023-03-10T10:04:40.015Z,98079.97
2023-03-10T10:07:32.932Z,98079.81
2023-03-10T10:10:30.552Z,98083.31
2023-03-10T10:13:16.600Z,98086.41
2023-03-10T10:16:32.039Z,98094.69
2023-03-10T10:19:27.184Z,98094.97
2023-03-10T10:22:28.700Z,98093.91
2023-03-10T10:25:24.829Z,98094.72
2023-03-10T10:28:20.307Z,98096.63
2023-03-10T10:31:19.388Z,98087.94
2023-03-10T10:34:05.694Z,98088.97
2023-03-10T10:36:56.423Z,98094.31
2023-03-10T10:39:42.916Z,98093.38
2023-03-10T10:42:33.153Z,98086.53
2023-03-10T10:45:35.287Z,98087.22
2023-03-10T10:48:40.379Z,98085.56
2023-03-10T10:51:29.171Z,98086.25
2023-03-10T10:54:27.701Z,98091.44
2023-03-10T10:57:19.997Z,98085.19
2023-03-10T11:00:25.492Z,98077.50
2023-03-10T11:03:35.468Z,98077.19
2023-03-10T11:06:30.821Z,98084.63
2023-03-10T11:09:19.547Z,98080.16
2023-03-10T11:12:13.110Z,98079.03
2023-03-10T11:15:46.154Z,98082.44
2023-03-10T11:18:37.035Z,98082.34
2023-03-10T11:21:27.978Z,98079.88
2023-03-10T11:24:28.814Z,98082.44
2023-03-10T11:27:31.749Z,98083.38
2023-03-10T11:30:25.834Z,98082.50
2023-03-10T11:33:26.271Z,98075.44
2023-03-10T11:36:17.114Z,98083.13
2023-03-10T11:39:17.451Z,98082.19
2023-03-10T11:42:33.761Z,98075.19
2023-03-10T11:45:43.830Z,98075.00
2023-03-10T11:48:50.827Z,98074.56
2023-03-10T11:51:50.969Z,98069.47
2023-03-10T11:54:42.321Z,98056.94
2023-03-10T11:57:35.638Z,98061.75
2023-03-10T12:00:47.442Z,98058.06
2023-03-10T12:03:47.858Z,98044.50
2023-03-10T12:06:40.061Z,98051.59
2023-03-10T12:09:56.054Z,98047.13
2023-03-10T12:12:44.478Z,98032.22
2023-03-10T12:15:36.154Z,98032.84
2023-03-10T12:18:21.712Z,98031.09
2023-03-10T12:21:22.786Z,98019.88
2023-03-10T12:24:46.677Z,98018.41
2023-03-10T12:28:11.019Z,98004.53
2023-03-10T12:31:32.300Z,97999.00
2023-03-10T12:34:28.475Z,97996.88
2023-03-10T12:37:22.557Z,98006.72
2023-03-10T12:40:46.001Z,98000.59
2023-03-10T12:43:37.326Z,98004.44
2023-03-10T12:46:37.957Z,98005.22
2023-03-10T12:49:37.848Z,98004.91
2023-03-10T12:52:51.516Z,97999.72
2023-03-10T12:55:37.162Z,97997.69
2023-03-10T12:58:24.411Z,97999.13
2023-03-10T13:01:13.592Z,97995.78
2023-03-10T13:03:58.991Z,97984.69
2023-03-10T13:06:46.351Z,97993.09
2023-03-10T13:09:36.421Z,97982.16
2023-03-10T13:12:28.864Z,97979.66
2023-03-10T13:15:25.628Z,97987.91
2023-03-10T13:18:16.062Z,97980.22
2023-03-10T13:21:01.309Z,97970.81
2023-03-10T13:23:46.395Z,97969.91
2023-03-10T13:26:31.790Z,97960.38
2023-03-10T13:29:19.878Z,97965.72
2023-03-10T13:32:05.600Z,97954.97
2023-03-10T13:34:50.734Z,97949.59
2023-03-10T13:37:35.519Z,97924.31
2023-03-10T13:40:23.101Z,97908.84
2023-03-10T13:43:40.596Z,97914.13
2023-03-10T13:46:31.659Z,97911.72
2023-03-10T13:49:17.348Z,97918.69
2023-03-10T13:52:12.422Z,97913.69
2023-03-10T13:55:15.937Z,97919.09
2023-03-10T13:58:00.822Z,97922.22
2023-03-10T14:00:46.288Z,97919.81
2023-03-10T14:03:31.591Z,97936.06
2023-03-10T14:06:16.888Z,97935.47
2023-03-10T14:09:22.503Z,97957.59
2023-03-10T14:12:09.001Z,97963.72
2023-03-10T14:14:54.471Z,97963.59
2023-03-10T14:17:40.620Z,97975.66
2023-03-10T14:20:29.872Z,97980.75
2023-03-10T14:23:18.078Z,97984.03
2023-03-10T14:26:08.621Z,97990.63
2023-03-10T14:28:54.120Z,97993.38
2023-03-10T14:31:39.769Z,97986.56
2023-03-10T14:34:25.271Z,97990.88
2023-03-10T14:37:10.187Z,97996.84
2023-03-10T14:39:55.896Z,97996.19
2023-03-10T14:42:42.562Z,97997.50
2023-03-10T14:45:30.182Z,97996.38
2023-03-10T14:48:21.097Z,97990.78
2023-03-10T14:51:06.710Z,97983.19
2023-03-10T14:53:51.647Z,97973.78
2023-03-10T14:56:36.676Z,97980.28
2023-03-10T14:59:21.696Z,97979.28
2023-03-10T15:02:16.556Z,97978.75
2023-03-10T15:05:01.605Z,97984.88
2023-03-10T15:07:47.740Z,97982.34
2023-03-10T15:10:37.333Z,97977.19
2023-03-10T15:13:24.173Z,97972.03
2023-03-10T15:16:14.290Z,97969.59
2023-03-10T15:18:59.770Z,97977.38
2023-03-10T15:21:44.626Z,97975.66
2023-03-10T15:24:29.699Z,97976.63
2023-03-10T15:27:15.200Z,97979.09
2023-03-10T15:30:00.395Z,97982.56
2023-03-10T15:32:46.299Z,97978.34
2023-03-10T15:35:32.034Z,97975.78
2023-03-10T15:38:17.245Z,97970.75
2023-03-10T15:41:02.320Z,97966.50
2023-03-10T15:43:47.643Z,97959.56
2023-03-10T15:46:32.809Z,97973.31
2023-03-10T15:49:17.870Z,97955.25
2023-03-10T15:52:03.015Z,97952.66
2023-03-10T15:54:48.112Z,97949.22
2023-03-10T15:57:33.028Z,97942.34
2023-03-10T16:00:20.031Z,97940.72
2023-03-10T16:03:05.261Z,97934.66
2023-03-10T16:05:50.304Z,97931.28
2023-03-10T16:08:39.644Z,97931.22
2023-03-10T16:11:24.453Z,97932.03
2023-03-10T16:14:09.555Z,97930.41
2023-03-10T16:16:54.947Z,97928.63
2023-03-10T16:19:40.021Z,97914.22
2023-03-10T16:22:25.209Z,97927.91
2023-03-10T16:25:14.305Z,97923.56
2023-03-10T16:27:59.427Z,97925.25
2023-03-10T16:30:48.140Z,97927.91
2023-03-10T16:33:33.754Z,97923.75
2023-03-10T16:36:24.733Z,97927.94
2023-03-10T16:39:11.050Z,97930.53
2023-03-10T16:41:57.877Z,97929.78
2023-03-10T16:44:42.948Z,97922.22
2023-03-10T16:47:28.547Z,97920.44
2023-03-10T16:50:13.538Z,97916.09
2023-03-10T16:52:58.451Z,97938.28
2023-03-10T16:55:44.868Z,97932.19
2023-03-10T16:58:30.071Z,97944.16
2023-03-10T17:01:15.612Z,97947.59
2023-03-10T17:04:00.959Z,97949.44
2023-03-10T17:06:47.103Z,97934.13
2023-03-10T17:09:32.112Z,97950.41
2023-03-10T17:12:17.075Z,97951.22
2023-03-10T17:15:02.912Z,97946.16
2023-03-10T17:17:48.396Z,97951.44
2023-03-10T17:20:37.813Z,97948.03
2023-03-10T17:23:23.133Z,97960.00
2023-03-10T17:26:10.349Z,97962.63
2023-03-10T17:28:56.070Z,97964.34
2023-03-10T17:31:41.380Z,97968.66
2023-03-10T17:34:26.774Z,97967.00
2023-03-10T17:37:12.174Z,97973.00
2023-03-10T17:39:57.098Z,97984.09
2023-03-10T17:42:45.609Z,98004.59
2023-03-10T17:45:30.992Z,98008.81
2023-03-10T17:48:16.305Z,98025.03
2023-03-10T17:51:02.091Z,98058.31
2023-03-10T17:53:47.521Z,98077.09
2023-03-10T17:56:35.503Z,98080.47
2023-03-10T17:59:20.752Z,98105.09
2023-03-10T18:02:06.231Z,98110.16
2023-03-10T18:04:51.419Z,98133.88
2023-03-10T18:07:36.253Z,98139.69
2023-03-10T18:10:23.064Z,98145.53
2023-03-10T18:13:24.640Z,98160.66
2023-03-10T18:16:17.353Z,98188.53
2023-03-10T18:19:03.227Z,98208.66
2023-03-10T18:21:48.999Z,98202.63
2023-03-10T18:24:33.856Z,98223.69
2023-03-10T18:27:18.666Z,98244.69
2023-03-10T18:30:04.950Z,98264.06
2023-03-10T18:32:50.533Z,98280.00
2023-03-10T18:35:39.799Z,98311.16
2023-03-10T18:38:25.111Z,98320.38
2023-03-10T18:41:10.274Z,98355.13
2023-03-10T18:43:55.405Z,98375.13
2023-03-10T18:46:40.356Z,98406.63
2023-03-10T18:49:25.672Z,98431.19
2023-03-10T18:52:11.035Z,98454.97
2023-03-10T18:54:56.772Z,98484.50
2023-03-10T18:57:43.557Z,98504.13
2023-03-10T19:00:28.746Z,98518.53
2023-03-10T19:03:14.484Z,98527.69
2023-03-10T19:05:59.991Z,98542.19
2023-03-10T19:08:45.307Z,98557.41
2023-03-10T19:11:35.401Z,98567.59
2023-03-10T19:14:20.611Z,98581.94
2023-03-10T19:17:05.986Z,98606.50
2023-03-10T19:19:51.831Z,98617.41
2023-03-10T19:22:38.342Z,98635.66
2023-03-10T19:25:23.797Z,98653.59
2023-03-10T19:28:09.441Z,98664.69
2023-03-10T19:30:55.357Z,98681.66
2023-03-10T19:33:40.489Z,98689.09
2023-03-10T19:36:25.864Z,98706.69
2023-03-10T19:39:11.283Z,98720.44
2023-03-10T19:41:56.676Z,98730.63
2023-03-10T19:44:41.948Z,98734.72
2023-03-10T19:47:29.860Z,98760.19
2023-03-10T19:50:16.832Z,98778.84
2023-03-10T19:53:02.225Z,98794.09
2023-03-10T19:55:56.983Z,98811.16
2023-03-10T19:58:42.468Z,98828.09
2023-03-10T20:01:28.488Z,98842.53
2023-03-10T20:04:13.956Z,98855.31
2023-03-10T20:06:59.344Z,98878.69
2023-03-10T20:09:44.566Z,98894.25
2023-03-10T20:12:29.409Z,98908.59
2023-03-10T20:15:14.863Z,98930.72
2023-03-10T20:18:00.180Z,98948.56
2023-03-10T20:20:45.869Z,98962.13
2023-03-10T20:23:31.696Z,98980.88
2023-03-10T20:26:17.801Z,98989.94
2023-03-10T20:29:03.640Z,99005.34
2023-03-10T20:31:48.863Z,99016.19
2023-03-10T20:34:34.188Z,99030.66
2023-03-10T20:37:19.644Z,99037.53
2023-03-10T20:40:06.851Z,99052.88
2023-03-10T20:42:56.031Z,99055.34
2023-03-10T20:45:41.687Z,99068.28
2023-03-10T20:48:26.981Z,99075.94
2023-03-10T20:51:14.901Z,99075.66
2023-03-10T20:54:00.485Z,99087.47
2023-03-10T20:56:45.425Z,99097.81
2023-03-10T20:59:30.937Z,99104.25
2023-03-10T21:02:17.442Z,99115.44
2023-03-10T21:05:02.397Z,99123.81
2023-03-10T21:07:47.923Z,99128.16
2023-03-10T21:10:33.147Z,99140.34
2023-03-10T21:16:20.609Z,99158.22
2023-03-10T21:19:06.116Z,99177.69
2023-03-10T21:21:51.613Z,99174.47
2023-03-10T21:24:36.785Z,99187.25
2023-03-10T21:27:22.128Z,99201.75
2023-03-10T21:30:08.994Z,99207.72
2023-03-10T21:32:58.136Z,99211.69
2023-03-10T21:35:43.415Z,99222.94
2023-03-10T21:38:28.908Z,99227.91
2023-03-10T21:41:16.698Z,99232.94
2023-03-10T21:44:02.135Z,99246.25
2023-03-10T21:46:47.308Z,99253.13
2023-03-10T21:49:33.021Z,99256.44
2023-03-10T21:52:18.203Z,99265.09
2023-03-10T21:55:04.041Z,99271.94
2023-03-10T21:57:49.697Z,99276.03
2023-03-10T22:00:35.471Z,99288.81
2023-03-10T22:03:20.859Z,99295.41
2023-03-10T22:06:06.300Z,99302.31
2023-03-10T22:08:52.032Z,99308.34
2023-03-10T22:11:37.035Z,99312.19
2023-03-10T22:14:24.434Z,99312.63
2023-03-10T22:17:09.941Z,99322.16
2023-03-10T22:19:55.333Z,99325.06
2023-03-10T22:22:41.971Z,99335.34
2023-03-10T22:25:27.298Z,99337.59
2023-03-10T22:28:12.692Z,99350.72
2023-03-10T22:30:58.543Z,99349.78
2023-03-10T22:33:43.852Z,99356.47
2023-03-10T22:36:29.022Z,99367.56
2023-03-10T22:39:14.314Z,99375.44
2023-03-10T22:41:59.793Z,99379.47
2023-03-10T22:44:45.156Z,99387.53
2023-03-10T22:47:30.474Z,99387.78
2023-03-10T22:50:22.787Z,99395.06
2023-03-10T22:53:13.734Z,99403.44
2023-03-10T22:55:58.568Z,99417.94
2023-03-10T22:58:43.917Z,99422.94
2023-03-10T23:01:28.827Z,99419.84
2023-03-10T23:04:14.133Z,99426.53
2023-03-10T23:06:59.354Z,99433.28
2023-03-10T23:09:44.830Z,99440.09
2023-03-10T23:12:29.826Z,99446.88
2023-03-10T23:15:24.819Z,99452.72
2023-03-10T23:18:11.144Z,99466.28
2023-03-10T23:20:56.605Z,99467.41
2023-03-10T23:23:42.186Z,99460.53
2023-03-10T23:26:27.449Z,99467.53
2023-03-10T23:29:12.699Z,99478.66
2023-03-10T23:31:58.064Z,99480.34
2023-03-10T23:34:43.413Z,99490.56
2023-03-10T23:37:28.786Z,99488.91
2023-03-10T23:40:16.156Z,99494.06
2023-03-10T23:43:03.743Z,99505.97
2023-03-10T23:45:49.436Z,99513.47
2023-03-10T23:48:35.028Z,99514.47
2023-03-10T23:51:20.221Z,99517.75
2023-03-10T23:54:05.618Z,99534.53
2023-03-10T23:56:51.020Z,99533.34
2023-03-10T23:59:36.242Z,99525.66
